Bunun Wisdom — 3FWR5 — position and weather

sailwx.info

Track history (hours):
 
Tides and Currents Weather Stations Pressure Air Temp Water Temp Dewpoint Dewpoint Depression Visibility Wind Speed Wind Dir Waves Ship Positions

Bunun Wisdom

Last reported at 2018-May-27 09:07 UTC. Time now 2018-Jul-21 23:07 UTC.
Position N 01°30' E 104°35'.
Warning: this ship's position is 55 days out of date.

Length 179 m; draft 9.4 m.

Type: Cargo ship. MMSI: 356822000.

Date/timePositionNaut miles runAvg speedWind from/ knotsBaromVisibWave heightAir tempDewpointWater temp
2018-May-27 09:07N 01°30' E 104°35'212.8
2018-May-27 08:59N 01°29' E 104°34'712.7
2018-May-27 08:27N 01°24' E 104°29'613.0
2018-May-27 07:58N 01°20' E 104°24'712.9
2018-May-27 07:26N 01°17' E 104°18'613.5
2018-May-27 07:00N 01°15' E 104°12'713.4
2018-May-27 06:30N 01°15' E 104°06'612.9
2018-May-27 06:00N 01°14' E 103°59'511.1
2018-May-27 05:30N 01°12' E 103°54'510.4
2018-May-27 05:00N 01°10' E 103°49'510.3
2018-May-27 04:30N 01°07' E 103°45'611.7
2018-May-27 04:00N 01°03' E 103°40'611.8
2018-May-27 03:30N 01°05' E 103°35'713.4
2018-May-27 03:00N 01°09' E 103°29'713.4
2018-May-27 02:29N 01°12' E 103°23'713.5
2018-May-27 02:00N 01°17' E 103°18'612.4
2018-May-27 01:30N 01°21' E 103°14'611.6
2018-May-27 00:57N 01°25' E 103°09'  
Track history (hours):
 
Tides and Currents Weather Stations Pressure Air Temp Water Temp Dewpoint Dewpoint Depression Visibility Wind Speed Wind Dir Waves Ship Positions

Bunun Wisdom

Last reported at 2018-May-27 09:07 UTC. Time now 2018-Jul-21 23:07 UTC.
Position N 01°30' E 104°35'.
Warning: this ship's position is 55 days out of date.

Length 179 m; draft 9.4 m.

Type: Cargo ship. MMSI: 356822000.

Date/timePositionNaut miles runAvg speedWind from/ knotsBaromVisibWave heightAir tempDewpointWater temp
2018-May-27 09:07N 01°30' E 104°35'212.8
2018-May-27 08:59N 01°29' E 104°34'712.7
2018-May-27 08:27N 01°24' E 104°29'613.0
2018-May-27 07:58N 01°20' E 104°24'712.9
2018-May-27 07:26N 01°17' E 104°18'613.5
2018-May-27 07:00N 01°15' E 104°12'713.4
2018-May-27 06:30N 01°15' E 104°06'612.9
2018-May-27 06:00N 01°14' E 103°59'511.1
2018-May-27 05:30N 01°12' E 103°54'510.4
2018-May-27 05:00N 01°10' E 103°49'510.3
2018-May-27 04:30N 01°07' E 103°45'611.7
2018-May-27 04:00N 01°03' E 103°40'611.8
2018-May-27 03:30N 01°05' E 103°35'713.4
2018-May-27 03:00N 01°09' E 103°29'713.4
2018-May-27 02:29N 01°12' E 103°23'713.5
2018-May-27 02:00N 01°17' E 103°18'612.4
2018-May-27 01:30N 01°21' E 103°14'611.6
2018-May-27 00:57N 01°25' E 103°09'  

Dump ship's entire track history